CheckWX is a tool to help pilots better visualize weather data.  It is not intended as a substitute for an official pre-flight weather briefing.

14:51:54 UTC

LFBO TAF
Toulouse-Blagnac Airport
Toulouse/Blagnac, France
TAF LFBO 231100Z 2312/2418 VRB02KT CAVOK BECMG 2312/2314 35005KT BECMG 2322/2324 VRB02KT BECMG 2411/2413 33007KT

Mar-23@
12:00 UTC

Mar-23 @ 12:00 UTC

Mar-24@
18:00 UTC

Mar-24 @ 18:00 UTC

TAF LFBO 231100Z 2312/2418 VRB02KT CAVOK
Wind
  • Variable at 2 KTS
Conditions
No significant weather
Cloud Levels
  • No significant clouds

Mar-23@
12:00 UTC

Mar-23 @ 12:00 UTC

Mar-23@
22:00 UTC

Mar-23 @ 22:00 UTC

BECMG 2312/2314 35005KT

Becoming

Becoming Conditions expected by Sat, Mar 23, 2019 @ 14:00 UTC

Wind
  • 350° at 5 KTS
Conditions
No significant weather
Cloud Levels
  • No significant clouds

Mar-23@
22:00 UTC

Mar-23 @ 22:00 UTC

Mar-24@
11:00 UTC

Mar-24 @ 11:00 UTC

BECMG 2322/2324 VRB02KT

Becoming

Becoming Conditions expected by Sun, Mar 24, 2019 @ 00:00 UTC

Wind
  • Variable at 2 KTS
Conditions
No significant weather
Cloud Levels
  • No significant clouds

Mar-24@
11:00 UTC

Mar-24 @ 11:00 UTC

Mar-24@
18:00 UTC

Mar-24 @ 18:00 UTC

BECMG 2411/2413 33007KT

Becoming

Becoming Conditions expected by Sun, Mar 24, 2019 @ 13:00 UTC

Wind
  • 330° at 7 KTS
Conditions
No significant weather
Cloud Levels
  • No significant clouds